Flight Track Log - Related Links

Times and Time Zones

All times are in EDT time to prevent confusion due to time zone crossing. See the QTR802 flight status page for this flight to view local times or setup timezone preferences in your user account.

Time Position Orientation Groundspeed Altitude Reporting Facility
EDT Latitude Longitude Course Direction KTS MPH feet Rate Location/Type
Sat 06:51:15 PM 25.4796 51.9861 60° Northeast  Level Estimated
Sat 06:52:15 PM 25.5466 52.1159 60° Northeast  Level Estimated
Sat 06:53:15 PM 25.6134 52.2459 60° Northeast  Level Estimated
Sat 06:54:15 PM 25.6802 52.3760 60° Northeast  Level Estimated
Sat 06:55:15 PM 25.7468 52.5063 60° Northeast  Level Estimated
Sat 06:56:15 PM 25.8133 52.6367 61° Northeast  Level Estimated
Sat 06:57:15 PM 25.8797 52.7673 61° Northeast  Level Estimated
Sat 06:58:15 PM 25.9460 52.8980 61° Northeast  Level Estimated
Sat 06:59:15 PM 26.0122 53.0289 61° Northeast  Level Estimated
Sat 07:00:15 PM 26.0782 53.1599 61° Northeast  Level Estimated
Sat 07:01:15 PM 26.1442 53.2911 61° Northeast  Level Estimated
Sat 07:02:15 PM 26.2100 53.4224 61° Northeast  Level Estimated
Sat 07:03:15 PM 26.2757 53.5539 61° Northeast  Level Estimated
Sat 07:04:15 PM 26.3412 53.6855 61° Northeast  Level Estimated
Sat 07:05:15 PM 26.4067 53.8172 61° Northeast  Level Estimated
Sat 07:06:15 PM 26.4720 53.9492 61° Northeast  Level Estimated
Sat 07:07:15 PM 26.5372 54.0812 61° Northeast  Level Estimated
Sat 07:08:15 PM 26.6023 54.2134 61° Northeast  Level Estimated
Sat 07:09:15 PM 26.6673 54.3458 61° Northeast  Level Estimated
Sat 07:10:15 PM 26.7321 54.4783 61° Northeast  Level Estimated
Sat 07:11:15 PM 26.7968 54.6110 61° Northeast  Level Estimated
Sat 07:12:15 PM 26.8614 54.7438 61° Northeast  Level Estimated
Sat 07:13:15 PM 26.9259 54.8767 61° Northeast  Level Estimated
Sat 07:14:15 PM 26.9902 55.0098 62° Northeast  Level Estimated
Sat 07:15:15 PM 27.0545 55.1431 62° Northeast  Level Estimated
Sat 07:16:15 PM 27.1186 55.2765 62° Northeast  Level Estimated
Sat 07:17:15 PM 27.1825 55.4101 62° Northeast  Level Estimated
Sat 07:18:15 PM 27.2464 55.5438 62° Northeast  Level Estimated
Sat 07:19:15 PM 27.3101 55.6777 62° Northeast  Level Estimated
Sat 07:20:15 PM 27.3737 55.8117 62° Northeast  Level Estimated
Sat 07:21:15 PM 27.4371 55.9459 62° Northeast  Level Estimated
Sat 07:22:15 PM 27.5005 56.0803 62° Northeast  Level Estimated
Sat 07:23:15 PM 27.5637 56.2148 62° Northeast  Level Estimated
Sat 07:24:15 PM 27.6267 56.3494 62° Northeast  Level Estimated
Sat 07:25:15 PM 27.6897 56.4842 62° Northeast  Level Estimated
Sat 07:26:15 PM 27.7525 56.6192 62° Northeast  Level Estimated
Sat 07:27:15 PM 27.8152 56.7543 62° Northeast  Level Estimated
Sat 07:28:15 PM 27.8777 56.8896 62° Northeast  Level Estimated
Sat 07:29:15 PM 27.9401 57.0250 62° Northeast  Level Estimated
Sat 07:30:15 PM 28.0024 57.1606 63° Northeast  Level Estimated
Sat 07:31:15 PM 28.0646 57.2963 63° Northeast  Level Estimated
Sat 07:32:15 PM 28.1266 57.4322 63° Northeast  Level Estimated
Sat 07:33:15 PM 28.1885 57.5683 63° Northeast  Level Estimated
Sat 07:34:15 PM 28.2502 57.7045 63° Northeast  Level Estimated
Sat 07:35:15 PM 28.3118 57.8408 63° Northeast  Level Estimated
Sat 07:36:15 PM 28.3733 57.9774 63° Northeast  Level Estimated
Sat 07:37:15 PM 28.4346 58.1141 63° Northeast  Level Estimated
Sat 07:38:15 PM 28.4958 58.2509 63° Northeast  Level Estimated
Sat 07:39:15 PM 28.5569 58.3879 63° Northeast  Level Estimated
Sat 07:40:15 PM 28.6178 58.5251 63° Northeast  Level Estimated
Sat 07:41:15 PM 28.6786 58.6624 63° Northeast  Level Estimated
Sat 07:42:15 PM 28.7393 58.7999 63° Northeast  Level Estimated
Sat 07:43:15 PM 28.7998 58.9375 63° Northeast  Level Estimated
Sat 07:44:15 PM 28.8602 59.0753 63° Northeast  Level Estimated
Sat 07:45:15 PM 28.9204 59.2133 64° Northeast  Level Estimated
Sat 07:46:15 PM 28.9805 59.3514 64° Northeast  Level Estimated
Sat 07:47:15 PM 29.0404 59.4897 64° Northeast  Level Estimated
Sat 07:48:15 PM 29.1002 59.6281 64° Northeast  Level Estimated
Sat 07:49:15 PM 29.1599 59.7667 64° Northeast  Level Estimated
Sat 07:50:15 PM 29.2194 59.9055 64° Northeast  Level Estimated
Sat 07:51:15 PM 29.2788 60.0444 64° Northeast  Level Estimated
Sat 07:52:15 PM 29.3381 60.1835 64° Northeast  Level Estimated
Sat 07:53:15 PM 29.3971 60.3227 64° Northeast  Level Estimated
Sat 07:54:15 PM 29.4561 60.4621 64° Northeast  Level Estimated
Sat 07:55:15 PM 29.5149 60.6017 64° Northeast  Level Estimated
Sat 07:56:15 PM 29.5735 60.7414 64° Northeast  Level Estimated
Sat 07:57:15 PM 29.6321 60.8813 64° Northeast  Level Estimated
Sat 07:58:15 PM 29.6904 61.0214 64° Northeast  Level Estimated
Sat 07:59:15 PM 29.7486 61.1616 64° Northeast  Level Estimated
Sat 08:00:15 PM 29.8067 61.3020 65° Northeast  Level Estimated
Sat 08:01:15 PM 29.8646 61.4425 65° Northeast  Level Estimated
Sat 08:02:15 PM 29.9224 61.5832 65° Northeast  Level Estimated
Sat 08:03:15 PM 29.9800 61.7241 65° Northeast  Level Estimated
Sat 08:04:15 PM 30.0375 61.8651 65° Northeast  Level Estimated
Sat 08:05:15 PM 30.0948 62.0063 65° Northeast  Level Estimated
Sat 08:06:15 PM 30.1520 62.1477 65° Northeast  Level Estimated
Sat 08:07:15 PM 30.2090 62.2892 65° Northeast  Level Estimated
Sat 08:08:15 PM 30.2659 62.4309 65° Northeast  Level Estimated
Sat 08:09:15 PM 30.3226 62.5728 65° Northeast  Level Estimated
Sat 08:10:15 PM 30.3791 62.7148 65° Northeast  Level Estimated
Sat 08:11:15 PM 30.4355 62.8570 65° Northeast  Level Estimated
Sat 08:12:15 PM 30.4918 62.9993 65° Northeast  Level Estimated
Sat 08:13:15 PM 30.5479 63.1418 65° Northeast  Level Estimated
Sat 08:14:15 PM 30.6038 63.2845 66° East  Level Estimated
Sat 08:15:15 PM 30.6596 63.4273 66° East  Level Estimated
Sat 08:16:15 PM 30.7152 63.5703 66° East  Level Estimated
Sat 08:17:15 PM 30.7707 63.7135 66° East  Level Estimated
Sat 08:18:15 PM 30.8260 63.8568 66° East  Level Estimated
Sat 08:19:15 PM 30.8811 64.0003 66° East  Level Estimated
Sat 08:20:15 PM 30.9361 64.1440 66° East  Level Estimated
Sat 08:21:15 PM 30.9910 64.2878 66° East  Level Estimated
Sat 08:22:15 PM 31.0457 64.4318 66° East  Level Estimated
Sat 08:23:15 PM 31.1002 64.5760 66° East  Level Estimated
Sat 08:24:15 PM 31.1546 64.7203 66° East  Level Estimated
Sat 08:25:15 PM 31.2087 64.8648 66° East  Level Estimated
Sat 08:26:15 PM 31.2628 65.0095 66° East  Level Estimated
Sat 08:27:15 PM 31.3167 65.1543 67° East  Level Estimated
Sat 08:28:15 PM 31.3704 65.2993 67° East  Level Estimated
Sat 08:29:15 PM 31.4239 65.4444 67° East  Level Estimated
Sat 08:30:15 PM 31.4773 65.5897 67° East  Level Estimated
Sat 08:31:15 PM 31.5305 65.7352 67° East  Level Estimated
Sat 08:32:15 PM 31.5836 65.8809 67° East  Level Estimated
Sat 08:33:15 PM 31.6364 66.0267 67° East  Level Estimated
Sat 08:34:15 PM 31.6892 66.1727 67° East  Level Estimated
Sat 08:35:15 PM 31.7417 66.3188 67° East  Level Estimated
Sat 08:36:15 PM 31.7941 66.4651 67° East  Level Estimated
Sat 08:37:15 PM 31.8463 66.6116 67° East  Level Estimated
Sat 08:38:15 PM 31.8984 66.7582 67° East  Level Estimated
Sat 08:39:15 PM 31.9503 66.9051 67° East  Level Estimated
Sat 08:40:15 PM 32.0020 67.0520 68° East  Level Estimated
Sat 08:41:15 PM 32.0535 67.1992 68° East  Level Estimated
Sat 08:42:15 PM 32.1049 67.3465 68° East  Level Estimated
Sat 08:43:15 PM 32.1561 67.4940 68° East  Level Estimated
Sat 08:44:15 PM 32.2071 67.6416 68° East  Level Estimated
Sat 08:45:15 PM 32.2580 67.7894 68° East  Level Estimated
Sat 08:46:15 PM 32.3087 67.9374 68° East  Level Estimated
Sat 08:47:15 PM 32.3592 68.0855 68° East  Level Estimated
Sat 08:48:15 PM 32.4096 68.2338 68° East  Level Estimated
Sat 08:49:15 PM 32.4597 68.3823 68° East  Level Estimated
Sat 08:50:15 PM 32.5097 68.5309 68° East  Level Estimated
Sat 08:51:15 PM 32.5595 68.6797 68° East  Level Estimated
Sat 08:52:15 PM 32.6092 68.8287 68° East  Level Estimated
Sat 08:53:15 PM 32.6586 68.9778 69° East  Level Estimated
Sat 08:54:15 PM 32.7079 69.1271 69° East  Level Estimated
Sat 08:55:15 PM 32.7570 69.2765 69° East  Level Estimated
Sat 08:56:15 PM 32.8060 69.4261 69° East  Level Estimated
Sat 08:57:15 PM 32.8548 69.5759 69° East  Level Estimated
Sat 08:58:15 PM 32.9033 69.7259 69° East  Level Estimated
Sat 08:59:15 PM 32.9517 69.8760 69° East  Level Estimated
Sat 09:00:15 PM 33.0000 70.0263 69° East  Level Estimated
Sat 09:01:15 PM 33.0480 70.1767 69° East  Level Estimated
Sat 09:02:15 PM 33.0959 70.3273 69° East  Level Estimated
Sat 09:03:15 PM 33.1435 70.4781 69° East  Level Estimated
Sat 09:04:15 PM 33.1910 70.6290 69° East  Level Estimated
Sat 09:05:15 PM 33.2383 70.7801 70° East  Level Estimated
Sat 09:06:15 PM 33.2855 70.9314 70° East  Level Estimated
Sat 09:07:15 PM 33.3324 71.0828 70° East  Level Estimated
Sat 09:08:15 PM 33.3792 71.2344 70° East  Level Estimated
Sat 09:09:15 PM 33.4258 71.3861 70° East  Level Estimated
Sat 09:10:15 PM 33.4722 71.5380 70° East  Level Estimated
Sat 09:11:15 PM 33.5184 71.6901 70° East  Level Estimated
Sat 09:12:15 PM 33.5644 71.8423 70° East  Level Estimated
Sat 09:13:15 PM 33.6102 71.9947 70° East  Level Estimated
Sat 09:14:15 PM 33.6559 72.1473 70° East  Level Estimated
Sat 09:15:15 PM 33.7014 72.3000 70° East  Level Estimated
Sat 09:16:15 PM 33.7466 72.4529 70° East  Level Estimated
Sat 09:17:15 PM 33.7917 72.6059 71° East  Level Estimated
Sat 09:18:15 PM 33.8366 72.7591 71° East  Level Estimated
Sat 09:19:15 PM 33.8813 72.9125 71° East  Level Estimated
Sat 09:20:15 PM 33.9258 73.0660 71° East  Level Estimated
Sat 09:21:15 PM 33.9702 73.2197 71° East  Level Estimated
Sat 09:22:15 PM 34.0143 73.3735 71° East  Level Estimated
Sat 09:23:15 PM 34.0583 73.5275 71° East  Level Estimated
Sat 09:24:15 PM 34.1020 73.6817 71° East  Level Estimated
Sat 09:25:15 PM 34.1456 73.8360 71° East  Level Estimated
Sat 09:26:15 PM 34.1889 73.9905 71° East  Level Estimated
Sat 09:27:15 PM 34.2321 74.1451 71° East  Level Estimated
Sat 09:28:15 PM 34.2751 74.2999 71° East  Level Estimated
Sat 09:29:15 PM 34.3179 74.4549 72° East  Level Estimated
Sat 09:30:15 PM 34.3605 74.6100 72° East  Level Estimated
Sat 09:31:15 PM 34.4028 74.7653 72° East  Level Estimated
Sat 09:32:15 PM 34.4450 74.9207 72° East  Level Estimated
Sat 09:33:15 PM 34.4870 75.0763 72° East  Level Estimated
Sat 09:34:15 PM 34.5288 75.2321 72° East  Level Estimated
Sat 09:35:15 PM 34.5704 75.3880 72° East  Level Estimated
Sat 09:36:15 PM 34.6118 75.5440 72° East  Level Estimated
Sat 09:37:15 PM 34.6530 75.7002 72° East  Level Estimated
Sat 09:38:15 PM 34.6940 75.8566 72° East  Level Estimated
Sat 09:39:15 PM 34.7349 76.0131 72° East  Level Estimated
Sat 09:40:15 PM 34.7755 76.1698 73° East  Level Estimated
Sat 09:41:15 PM 34.8159 76.3266 73° East  Level Estimated
Sat 09:42:15 PM 34.8561 76.4836 73° East  Level Estimated
Sat 09:43:15 PM 34.8961 76.6407 73° East  Level Estimated
Sat 09:44:15 PM 34.9359 76.7980 73° East  Level Estimated
Sat 09:45:15 PM 34.9755 76.9555 73° East  Level Estimated
Sat 09:46:15 PM 35.0149 77.1131 73° East  Level Estimated
Sat 09:47:15 PM 35.0541 77.2708 73° East  Level Estimated
Sat 09:48:15 PM 35.0930 77.4287 73° East  Level Estimated
Sat 09:49:15 PM 35.1318 77.5867 73° East  Level Estimated
Sat 09:50:15 PM 35.1704 77.7449 73° East  Level Estimated
Sat 09:51:15 PM 35.2088 77.9033 74° East  Level Estimated
Sat 09:52:15 PM 35.2469 78.0618 74° East  Level Estimated
Sat 09:53:15 PM 35.2849 78.2204 74° East  Level Estimated
Sat 09:54:15 PM 35.3226 78.3792 74° East  Level Estimated
Sat 09:55:15 PM 35.3602 78.5381 74° East  Level Estimated
Sat 09:56:15 PM 35.3975 78.6972 74° East  Level Estimated
Sat 09:57:15 PM 35.4346 78.8565 74° East  Level Estimated
Sat 09:58:15 PM 35.4715 79.0158 74° East  Level Estimated
Sat 09:59:15 PM 35.5082 79.1754 74° East  Level Estimated
Sat 10:00:15 PM 35.5447 79.3350 74° East  Level Estimated
Sat 10:01:15 PM 35.5810 79.4949 74° East  Level Estimated
Sat 10:02:15 PM 35.6171 79.6548 75° East  Level Estimated
Sat 10:03:15 PM 35.6529 79.8149 75° East  Level Estimated
Sat 10:04:15 PM 35.6886 79.9752 75° East  Level Estimated
Sat 10:05:15 PM 35.7240 80.1356 75° East  Level Estimated
Sat 10:06:15 PM 35.7593 80.2961 75° East  Level Estimated
Sat 10:07:15 PM 35.7943 80.4568 75° East  Level Estimated
Sat 10:08:15 PM 35.8290 80.6176 75° East  Level Estimated
Sat 10:09:15 PM 35.8636 80.7785 75° East  Level Estimated
Sat 10:10:15 PM 35.8980 80.9396 75° East  Level Estimated
Sat 10:11:15 PM 35.9321 81.1009 75° East  Level Estimated
Sat 10:12:15 PM 35.9661 81.2622 75° East  Level Estimated
Sat 10:13:15 PM 35.9998 81.4238 76° East  Level Estimated
Sat 10:14:15 PM 36.0333 81.5854 76° East  Level Estimated
Sat 10:15:15 PM 36.0666 81.7472 76° East  Level Estimated
Sat 10:16:15 PM 36.0997 81.9091 76° East  Level Estimated
Sat 10:17:15 PM 36.1325 82.0712 76° East  Level Estimated
Sat 10:18:15 PM 36.1651 82.2334 76° East  Level Estimated
Sat 10:19:15 PM 36.1975 82.3957 76° East  Level Estimated
Sat 10:20:15 PM 36.2297 82.5582 76° East  Level Estimated
Sat 10:21:15 PM 36.2617 82.7208 76° East  Level Estimated
Sat 10:22:15 PM 36.2934 82.8835 76° East  Level Estimated
Sat 10:23:15 PM 36.3250 83.0464 77° East  Level Estimated
Sat 10:24:15 PM 36.3563 83.2094 77° East  Level Estimated
Sat 10:25:15 PM 36.3874 83.3725 77° East  Level Estimated
Sat 10:26:15 PM 36.4183 83.5358 77° East  Level Estimated
Sat 10:27:15 PM 36.4489 83.6991 77° East  Level Estimated
Sat 10:28:15 PM 36.4793 83.8627 77° East  Level Estimated
Sat 10:29:15 PM 36.5095 84.0263 77° East  Level Estimated
Sat 10:30:15 PM 36.5395 84.1901 77° East  Level Estimated
Sat 10:31:15 PM 36.5692 84.3540 77° East  Level Estimated
Sat 10:32:15 PM 36.5988 84.5180 77° East  Level Estimated
Sat 10:33:15 PM 36.6281 84.6821 78° East  Level Estimated
Sat 10:34:15 PM 36.6572 84.8464 78° East  Level Estimated
Sat 10:35:15 PM 36.6860 85.0108 78° East  Level Estimated
Sat 10:36:15 PM 36.7146 85.1753 78° East  Level Estimated
Sat 10:37:15 PM 36.7430 85.3400 78° East  Level Estimated
Sat 10:38:15 PM 36.7712 85.5047 78° East  Level Estimated
Sat 10:39:15 PM 36.7991 85.6696 78° East  Level Estimated
Sat 10:40:15 PM 36.8269 85.8346 78° East  Level Estimated
Sat 10:41:15 PM 36.8544 85.9997 78° East  Level Estimated
Sat 10:42:15 PM 36.8816 86.1650 78° East  Level Estimated
Sat 10:43:15 PM 36.9086 86.3303 78° East  Level Estimated
Sat 10:44:15 PM 36.9354 86.4958 79° East  Level Estimated
Sat 10:45:15 PM 36.9620 86.6614 79° East  Level Estimated
Sat 10:46:15 PM 36.9883 86.8271 79° East  Level Estimated
Sat 10:47:15 PM 37.0145 86.9929 79° East  Level Estimated
Sat 10:48:15 PM 37.0403 87.1588 79° East  Level Estimated
Sat 10:49:15 PM 37.0660 87.3249 79° East  Level Estimated
Sat 10:50:15 PM 37.0914 87.4910 79° East  Level Estimated
Sat 10:51:15 PM 37.1166 87.6573 79° East  Level Estimated
Sat 10:52:15 PM 37.1415 87.8237 79° East  Level Estimated
Sat 10:53:15 PM 37.1663 87.9902 79° East  Level Estimated
Sat 10:54:15 PM 37.1908 88.1567 80° East  Level Estimated
Sat 10:55:15 PM 37.2150 88.3234 80° East  Level Estimated
Sat 10:56:15 PM 37.2390 88.4902 80° East  Level Estimated
Sat 10:57:15 PM 37.2628 88.6572 80° East  Level Estimated
Sat 10:58:15 PM 37.2864 88.8242 80° East  Level Estimated
Sat 10:59:15 PM 37.3097 88.9913 80° East  Level Estimated
Sat 11:00:15 PM 37.3328 89.1585 80° East  Level Estimated
Sat 11:01:15 PM 37.3556 89.3259 80° East  Level Estimated
Sat 11:02:15 PM 37.3782 89.4933 80° East  Level Estimated
Sat 11:03:15 PM 37.4006 89.6608 81° East  Level Estimated
Sat 11:04:15 PM 37.4227 89.8285 81° East  Level Estimated
Sat 11:05:15 PM 37.4446 89.9962 81° East  Level Estimated
Sat 11:06:15 PM 37.4663 90.1640 81° East  Level Estimated
Sat 11:07:15 PM 37.4877 90.3319 81° East  Level Estimated
Sat 11:08:15 PM 37.5089 90.4999 81° East  Level Estimated
Sat 11:09:15 PM 37.5299 90.6681 81° East  Level Estimated
Sat 11:10:15 PM 37.5506 90.8363 81° East  Level Estimated
Sat 11:11:15 PM 37.5710 91.0046 81° East  Level Estimated
Sat 11:12:15 PM 37.5913 91.1730 81° East  Level Estimated
Sat 11:13:15 PM 37.6113 91.3414 82° East  Level Estimated
Sat 11:14:15 PM 37.6310 91.5100 82° East  Level Estimated
Sat 11:15:15 PM 37.6506 91.6787 82° East  Level Estimated
Sat 11:16:15 PM 37.6698 91.8474 82° East  Level Estimated
Sat 11:17:15 PM 37.6889 92.0163 82° East  Level Estimated
Sat 11:18:15 PM 37.7076 92.1852 82° East  Level Estimated
Sat 11:19:15 PM 37.7262 92.3542 82° East  Level Estimated
Sat 11:20:15 PM 37.7445 92.5233 82° East  Level Estimated
Sat 11:21:15 PM 37.7626 92.6925 82° East  Level Estimated
Sat 11:22:15 PM 37.7804 92.8617 82° East  Level Estimated
Sat 11:23:15 PM 37.7980 93.0311 83° East  Level Estimated
Sat 11:24:15 PM 37.8153 93.2005 83° East  Level Estimated
Sat 11:25:15 PM 37.8324 93.3700 83° East  Level Estimated
Sat 11:26:15 PM 37.8493 93.5396 83° East  Level Estimated
Sat 11:27:15 PM 37.8659 93.7092 83° East  Level Estimated
Sat 11:28:15 PM 37.8823 93.8789 83° East  Level Estimated
Sat 11:29:15 PM 37.8984 94.0487 83° East  Level Estimated
Sat 11:30:15 PM 37.9143 94.2186 83° East  Level Estimated
Sat 11:31:15 PM 37.9299 94.3886 83° East  Level Estimated
Sat 11:32:15 PM 37.9453 94.5586 84° East  Level Estimated
Sat 11:33:15 PM 37.9605 94.7287 84° East  Level Estimated
Sat 11:34:15 PM 37.9754 94.8989 84° East  Level Estimated
Sat 11:35:15 PM 37.9900 95.0691 84° East  Level Estimated
Sat 11:36:15 PM 38.0044 95.2394 84° East  Level Estimated
Sat 11:37:15 PM 38.0186 95.4098 84° East  Level Estimated
Sat 11:38:15 PM 38.0325 95.5802 84° East  Level Estimated
Sat 11:39:15 PM 38.0462 95.7507 84° East  Level Estimated
Sat 11:40:15 PM 38.0596 95.9212 84° East  Level Estimated
Sat 11:41:15 PM 38.0728 96.0919 84° East  Level Estimated
Sat 11:42:15 PM 38.0858 96.2625 85° East  Level Estimated
Sat 11:43:15 PM 38.0984 96.4333 85° East  Level Estimated
Sat 11:44:15 PM 38.1109 96.6041 85° East  Level Estimated
Sat 11:45:15 PM 38.1231 96.7749 85° East  Level Estimated
Sat 11:46:15 PM 38.1350 96.9458 85° East  Level Estimated
Sat 11:47:15 PM 38.1467 97.1168 85° East  Level Estimated
Sat 11:48:15 PM 38.1582 97.2878 85° East  Level Estimated
Sat 11:49:15 PM 38.1694 97.4589 85° East  Level Estimated
Sat 11:50:15 PM 38.1803 97.6301 85° East  Level Estimated
Sat 11:51:15 PM 38.1910 97.8012 86° East  Level Estimated
Sat 11:52:15 PM 38.2015 97.9725 86° East  Level Estimated
Sat 11:53:15 PM 38.2117 98.1438 86° East  Level Estimated
Sat 11:54:15 PM 38.2217 98.3151 86° East  Level Estimated
Sat 11:55:15 PM 38.2314 98.4865 86° East  Level Estimated
Sat 11:56:15 PM 38.2408 98.6579 86° East  Level Estimated
Sat 11:57:15 PM 38.2500 98.8293 86° East  Level Estimated
Sat 11:58:15 PM 38.2590 99.0008 86° East  Level Estimated
Sat 11:59:15 PM 38.2677 99.1724 86° East  Level Estimated
Sun 12:00:15 AM 38.2762 99.3440 86° East  Level Estimated
Sun 12:01:15 AM 38.2844 99.5156 87° East  Level Estimated
Sun 12:02:15 AM 38.2923 99.6873 87° East  Level Estimated
Sun 12:03:15 AM 38.3000 99.8590 87° East  Level Estimated
Sun 12:04:15 AM 38.3075 100.0307 87° East  Level Estimated
Sun 12:05:15 AM 38.3147 100.2025 87° East  Level Estimated
Sun 12:06:15 AM 38.3217 100.3743 87° East  Level Estimated
Sun 12:07:15 AM 38.3284 100.5461 87° East  Level Estimated
Sun 12:08:15 AM 38.3349 100.7180 87° East  Level Estimated
Sun 12:09:15 AM 38.3411 100.8899 87° East  Level Estimated
Sun 12:10:15 AM 38.3470 101.0618 88° East  Level Estimated
Sun 12:11:15 AM 38.3527 101.2338 88° East  Level Estimated
Sun 12:12:15 AM 38.3582 101.4058 88° East  Level Estimated
Sun 12:13:15 AM 38.3634 101.5778 88° East  Level Estimated
Sun 12:14:15 AM 38.3684 101.7498 88° East  Level Estimated
Sun 12:15:15 AM 38.3731 101.9219 88° East  Level Estimated
Sun 12:16:15 AM 38.3775 102.0939 88° East  Level Estimated
Sun 12:17:15 AM 38.3817 102.2660 88° East  Level Estimated
Sun 12:18:15 AM 38.3857 102.4381 88° East  Level Estimated
Sun 12:19:15 AM 38.3894 102.6103 88° East  Level Estimated
Sun 12:20:15 AM 38.3928 102.7824 89° East  Level Estimated
Sun 12:21:15 AM 38.3960 102.9546 89° East  Level Estimated
Sun 12:22:15 AM 38.3989 103.1268 89° East  Level Estimated
Sun 12:23:15 AM 38.4016 103.2990 89° East  Level Estimated
Sun 12:24:15 AM 38.4040 103.4712 89° East  Level Estimated
Sun 12:25:15 AM 38.4062 103.6434 89° East  Level Estimated
Sun 12:26:15 AM 38.4082 103.8156 89° East  Level Estimated
Sun 12:27:15 AM 38.4098 103.9879 89° East  Level Estimated
Sun 12:28:15 AM 38.4113 104.1601 89° East  Level Estimated
Sun 12:29:15 AM 38.4124 104.3324 90° East  Level Estimated
Sun 12:30:15 AM 38.4134 104.5046 90° East  Level Estimated
Sun 12:31:15 AM 38.4140 104.6769 90° East  Level Estimated
Sun 12:32:15 AM 38.4145 104.8491 90° East  Level Estimated
Sun 12:33:15 AM 38.4146 105.0214 90° East  Level Estimated
Sun 12:34:15 AM 38.4146 105.1937 90° East  Level Estimated
Sun 12:35:15 AM 38.4142 105.3659 90° East  Level Estimated
Sun 12:36:15 AM 38.4136 105.5382 90° East  Level Estimated
Sun 12:37:15 AM 38.4128 105.7104 90° East  Level Estimated
Sun 12:38:15 AM 38.4117 105.8827 91° East  Level Estimated
Sun 12:39:15 AM 38.4103 106.0549 91° East  Level Estimated
Sun 12:40:15 AM 38.4087 106.2272 91° East  Level Estimated
Sun 12:41:15 AM 38.4069 106.3994 91° East  Level Estimated
Sun 12:42:15 AM 38.4048 106.5716 91° East  Level Estimated
Sun 12:43:15 AM 38.4024 106.7438 91° East  Level Estimated
Sun 12:44:15 AM 38.3998 106.9160 91° East  Level Estimated
Sun 12:45:15 AM 38.3970 107.0882 91° East  Level Estimated
Sun 12:46:15 AM 38.3939 107.2604 91° East  Level Estimated
Sun 12:47:15 AM 38.3905 107.4325 91° East  Level Estimated
Sun 12:48:15 AM 38.3869 107.6047 92° East  Level Estimated
Sun 12:49:15 AM 38.3830 107.7768 92° East  Level Estimated
Sun 12:50:15 AM 38.3789 107.9489 92° East  Level Estimated
Sun 12:51:15 AM 38.3745 108.1210 92° East  Level Estimated
Sun 12:52:15 AM 38.3699 108.2931 92° East  Level Estimated
Sun 12:53:15 AM 38.3651 108.4651 92° East  Level Estimated
Sun 12:54:15 AM 38.3599 108.6371 92° East  Level Estimated
Sun 12:55:15 AM 38.3545 108.8091 92° East  Level Estimated
Sun 12:56:15 AM 38.3489 108.9811 92° East  Level Estimated
Sun 12:57:15 AM 38.3430 109.1530 93° East  Level Estimated
Sun 12:58:15 AM 38.3369 109.3249 93° East  Level Estimated
Sun 12:59:15 AM 38.3305 109.4968 93° East  Level Estimated
Sun 01:00:15 AM 38.3239 109.6687 93° East  Level Estimated
Sun 01:01:15 AM 38.3170 109.8405 93° East  Level Estimated
Sun 01:02:15 AM 38.3099 110.0123 93° East  Level Estimated
Sun 01:03:15 AM 38.3025 110.1840 93° East  Level Estimated
Sun 01:04:15 AM 38.2949 110.3557 93° East  Level Estimated
Sun 01:05:15 AM 38.2870 110.5274 93° East  Level Estimated
Sun 01:06:15 AM 38.2789 110.6990 94° East  Level Estimated
Sun 01:07:15 AM 38.2705 110.8706 94° East  Level Estimated
Sun 01:08:15 AM 38.2619 111.0422 94° East  Level Estimated
Sun 01:09:15 AM 38.2530 111.2137 94° East  Level Estimated
Sun 01:10:15 AM 38.2439 111.3852 94° East  Level Estimated
Sun 01:11:15 AM 38.2345 111.5566 94° East  Level Estimated
Sun 01:12:15 AM 38.2248 111.7280 94° East  Level Estimated
Sun 01:13:15 AM 38.2150 111.8994 94° East  Level Estimated
Sun 01:14:15 AM 38.2048 112.0706 94° East  Level Estimated
Sun 01:15:15 AM 38.1945 112.2419 94° East  Level Estimated
Sun 01:16:15 AM 38.1838 112.4131 95° East  Level Estimated
Sun 01:17:15 AM 38.1730 112.5842 95° East  Level Estimated
Sun 01:18:15 AM 38.1619 112.7553 95° East  Level Estimated
Sun 01:19:15 AM 38.1505 112.9264 95° East  Level Estimated
Sun 01:20:15 AM 38.1389 113.0974 95° East  Level Estimated
Sun 01:21:15 AM 38.1270 113.2683 95° East  Level Estimated
Sun 01:22:15 AM 38.1149 113.4392 95° East  Level Estimated
Sun 01:23:15 AM 38.1025 113.6100 95° East  Level Estimated
Sun 01:24:15 AM 38.0899 113.7807 95° East  Level Estimated
Sun 01:25:15 AM 38.0771 113.9514 96° East  Level Estimated
Sun 01:26:15 AM 38.0640 114.1221 96° East  Level Estimated
Sun 01:27:15 AM 38.0506 114.2927 96° East  Level Estimated
Sun 01:28:15 AM 38.0370 114.4632 96° East  Level Estimated
Sun 01:29:15 AM 38.0232 114.6336 96° East  Level Estimated
Sun 01:30:15 AM 38.0091 114.8040 96° East  Level Estimated
Sun 01:31:15 AM 37.9948 114.9743 96° East  Level Estimated
Sun 01:32:15 AM 37.9802 115.1446 96° East  Level Estimated
Sun 01:33:15 AM 37.9654 115.3148 96° East  Level Estimated
Sun 01:34:15 AM 37.9503 115.4849 96° East  Level Estimated
Sun 01:35:15 AM 37.9350 115.6550 97° East  Level Estimated
Sun 01:36:15 AM 37.9194 115.8249 97° East  Level Estimated
Sun 01:37:15 AM 37.9036 115.9949 97° East  Level Estimated
Sun 01:38:15 AM 37.8876 116.1647 97° East  Level Estimated
Sun 01:39:15 AM 37.8713 116.3344 97° East  Level Estimated
Sun 01:40:15 AM 37.8548 116.5041 97° East  Level Estimated
Sun 01:41:15 AM 37.8380 116.6737 97° East  Level Estimated
Sun 01:42:15 AM 37.8210 116.8432 97° East  Level Estimated
Sun 01:43:15 AM 37.8037 117.0127 97° East  Level Estimated
Sun 01:44:15 AM 37.7862 117.1821 98° East  Level Estimated
Sun 01:45:15 AM 37.7684 117.3513 98° East  Level Estimated
Sun 01:46:15 AM 37.7505 117.5206 98° East  Level Estimated
Sun 01:47:15 AM 37.7322 117.6897 98° East  Level Estimated
Sun 01:48:15 AM 37.7137 117.8587 98° East  Level Estimated
Sun 01:49:15 AM 37.6950 118.0277 98° East  Level Estimated
Sun 01:50:15 AM 37.6761 118.1965 98° East  Level Estimated
Sun 01:51:15 AM 37.6569 118.3653 98° East  Level Estimated
Sun 01:52:15 AM 37.6375 118.5340 98° East  Level Estimated
Sun 01:53:15 AM 37.6178 118.7026 98° East  Level Estimated
Sun 01:54:15 AM 37.5979 118.8711 99° East  Level Estimated
Sun 01:55:15 AM 37.5777 119.0395 99° East  Level Estimated
Sun 01:56:15 AM 37.5573 119.2079 99° East  Level Estimated
Sun 01:57:15 AM 37.5367 119.3761 99° East  Level Estimated
Sun 01:58:15 AM 37.5158 119.5442 99° East  Level Estimated
Sun 01:59:15 AM 37.4947 119.7123 99° East  Level Estimated
Sun 02:00:15 AM 37.4734 119.8802 99° East  Level Estimated
Sun 02:01:15 AM 37.4518 120.0481 99° East  Level Estimated
Sun 02:02:15 AM 37.4300 120.2159 99° East  Level Estimated
Sun 02:03:15 AM 37.4079 120.3835 99° East  Level Estimated
Sun 02:04:15 AM 37.3856 120.5511 100° East  Level Estimated
Sun 02:05:15 AM 37.3631 120.7186 100° East  Level Estimated
Sun 02:06:15 AM 37.3403 120.8859 100° East  Level Estimated
Sun 02:07:15 AM 37.3173 121.0532 100° East  Level Estimated
Sun 02:08:15 AM 37.2940 121.2203 100° East  Level Estimated
Sun 02:09:15 AM 37.2706 121.3874 100° East  Level Estimated
Sun 02:10:15 AM 37.2469 121.5543 100° East  Level Estimated
Sun 02:11:15 AM 37.2229 121.7212 100° East  Level Estimated
Sun 02:12:15 AM 37.1987 121.8879 100° East  Level Estimated
Sun 02:13:15 AM 37.1743 122.0545 100° East  Level Estimated
Sun 02:14:15 AM 37.1497 122.2211 101° East  Level Estimated
Sun 02:15:15 AM 37.1248 122.3875 101° East  Level Estimated
Sun 02:16:15 AM 37.0997 122.5538 101° East  Level Estimated
Sun 02:17:15 AM 37.0744 122.7200 101° East  Level Estimated
Sun 02:18:15 AM 37.0488 122.8860 101° East  Level Estimated
Sun 02:19:15 AM 37.0230 123.0520 101° East  Level Estimated
Sun 02:20:15 AM 36.9970 123.2179 101° East  Level Estimated
Sun 02:21:15 AM 36.9707 123.3836 101° East  Level Estimated
Sun 02:22:15 AM 36.9442 123.5492 101° East  Level Estimated
Sun 02:23:15 AM 36.9175 123.7147 101° East  Level Estimated
Sun 02:24:15 AM 36.8905 123.8801 102° East  Level Estimated
Sun 02:25:15 AM 36.8633 124.0454 102° East  Level Estimated
Sun 02:26:15 AM 36.8359 124.2106 102° East  Level Estimated
Sun 02:27:15 AM 36.8083 124.3756 102° East  Level Estimated
Sun 02:28:15 AM 36.7804 124.5405 102° East  Level Estimated
Sun 02:29:15 AM 36.7523 124.7053 102° East  Level Estimated
Sun 02:30:15 AM 36.7240 124.8700 102° East  Level Estimated
Sun 02:31:15 AM 36.6954 125.0346 102° East  Level Estimated
Sun 02:32:15 AM 36.6667 125.1990 102° East  Level Estimated
Sun 02:33:15 AM 36.6377 125.3633 102° East  Level Estimated
Sun 02:34:15 AM 36.6084 125.5275 103° East  Level Estimated
Sun 02:35:15 AM 36.5790 125.6916 103° East  Level Estimated
Sun 02:36:15 AM 36.5493 125.8555 103° East  Level Estimated
Sun 02:37:15 AM 36.5194 126.0193 103° East  Level Estimated
Sun 02:38:15 AM 36.4893 126.1830 103° East  Level Estimated
Sun 02:39:15 AM 36.4589 126.3465 103° East  Level Estimated
Sun 02:40:15 AM 36.4284 126.5100 103° East  Level Estimated
Sun 02:41:15 AM 36.3976 126.6733 103° East  Level Estimated
Sun 02:42:15 AM 36.3666 126.8364 103° East  Level Estimated
Sun 02:43:15 AM 36.3353 126.9995 103° East  Level Estimated
Sun 02:44:15 AM 36.3039 127.1624 104° East  Level Estimated
Sun 02:45:15 AM 36.2722 127.3252 104° East  Level Estimated
Sun 02:46:15 AM 36.2403 127.4878 104° East  Level Estimated
Sun 02:47:15 AM 36.2082 127.6503 104° East  Level Estimated
Sun 02:48:15 AM 36.1758 127.8127 104° East  Level Estimated
Sun 02:49:15 AM 36.1433 127.9749 104° East  Level Estimated
Sun 02:50:15 AM 36.1105 128.1370 104° East  Level Estimated
Sun 02:51:15 AM 36.0775 128.2990 104° East  Level Estimated
Sun 02:52:15 AM 36.0443 128.4608 104° East  Level Estimated
Sun 02:53:15 AM 36.0108 128.6225 104° East  Level Estimated
Sun 02:54:15 AM 35.9772 128.7841 104° East  Level Estimated
Sun 02:55:15 AM 35.9433 128.9455 105° East  Level Estimated
Sun 02:56:15 AM 35.9093 129.1068 105° East  Level Estimated
Sun 02:57:15 AM 35.8750 129.2679 105° East  Level Estimated
Sun 02:58:15 AM 35.8405 129.4290 105° East  Level Estimated
Sun 02:59:15 AM 35.8057 129.5898 105° East  Level Estimated
Sun 03:00:15 AM 35.7708 129.7505 105° East  Level Estimated
Sun 03:01:15 AM 35.7356 129.9111 105° East  Level Estimated
Sun 03:02:15 AM 35.7003 130.0715 105° East  Level Estimated
Sun 03:03:15 AM 35.6647 130.2318 105° East  Level Estimated
Sun 03:04:15 AM 35.6289 130.3920 105° East  Level Estimated
Sun 03:05:15 AM 35.5929 130.5520 106° East  Level Estimated
Sun 03:06:15 AM 35.5567 130.7119 106° East  Level Estimated
Sun 03:07:15 AM 35.5203 130.8716 106° East  Level Estimated
Sun 03:08:15 AM 35.4836 131.0311 106° East  Level Estimated
Sun 03:09:15 AM 35.4468 131.1906 106° East  Level Estimated
Sun 03:10:15 AM 35.4097 131.3499 106° East  Level Estimated
Sun 03:11:15 AM 35.3725 131.5090 106° East  Level Estimated
Sun 03:12:15 AM 35.3350 131.6680 106° East  Level Estimated
Sun 03:13:15 AM 35.2973 131.8268 106° East  Level Estimated
Sun 03:14:15 AM 35.2594 131.9855 106° East  Level Estimated
Sun 03:15:15 AM 35.2213 132.1440 106° East  Level Estimated
Sun 03:16:15 AM 35.1830 132.3024 107° East  Level Estimated
Sun 03:17:15 AM 35.1445 132.4607 107° East  Level Estimated
Sun 03:18:15 AM 35.1058 132.6188 107° East  Level Estimated
Sun 03:19:15 AM 35.0669 132.7767 107° East  Level Estimated
Sun 03:20:15 AM 35.0278 132.9345 107° East  Level Estimated
Sun 03:21:15 AM 34.9884 133.0922 107° East  Level Estimated
Sun 03:22:15 AM 34.9489 133.2496 107° East  Level Estimated
Sun 03:23:15 AM 34.9092 133.4070 107° East  Level Estimated
Sun 03:24:15 AM 34.8693 133.5642 107° East  Level Estimated
Sun 03:25:15 AM 34.8291 133.7212 107° East  Level Estimated
Sun 03:26:15 AM 34.7888 133.8781 107° East  Level Estimated
Sun 03:27:15 AM 34.7482 134.0348 108° East  Level Estimated
Sun 03:28:15 AM 34.7075 134.1914 108° East  Level Estimated
Sun 03:29:15 AM 34.6666 134.3478 108° East  Level Estimated
Sun 03:30:15 AM 34.6254 134.5040 108° East  Level Estimated
Sun 03:31:15 AM 34.5841 134.6602 108° East  Level Estimated
Sun 03:32:15 AM 34.5425 134.8161 108° East  Level Estimated
Sun 03:33:15 AM 34.5008 134.9719 108° East  Level Estimated
Sun 03:34:15 AM 34.4589 135.1275 108° East  Level Estimated
Sun 03:35:15 AM 34.4167 135.2830 288° West  Level Estimated
Sun 03:36:15 AM 34.4589 135.1275 108° East  Level Estimated
Sun 03:37:15 AM 34.4167 135.2830 288° West  Level Estimated
Sun 03:38:15 AM 34.4589 135.1275 108° East  Level Estimated
Sun 03:39:15 AM 34.4167 135.2830 288° West  Level Estimated
Sun 03:40:15 AM 34.4589 135.1275 108° East  Level Estimated
Sun 03:41:15 AM 34.4167 135.2830 288° West  Level Estimated
Sun 03:42:15 AM 34.4589 135.1275 108° East  Level Estimated
Sun 03:43:15 AM 34.4167 135.2830 288° West  Level Estimated
Sun 03:44:15 AM 34.4589 135.1275 108° East  Level Estimated
Sun 03:45:15 AM 34.4167 135.2830 288° West  Level Estimated
Sun 03:46:15 AM 34.4589 135.1275 108° East  Level Estimated
Sun 03:47:15 AM 34.4167 135.2830 288° West  Level Estimated
Sun 03:48:15 AM 34.4589 135.1275 108° East  Level Estimated
Sun 03:49:15 AM 34.4167 135.2830 288° West  Level Estimated
Sun 03:50:15 AM 34.4589 135.1275 288° West  Level Estimated

Login

Don't have an account? Register now (free) for customized features, flight alerts, and more!